Time;durP1;ratioP1;P1;durP2;ratioP2;P2;SDS_P1;SDS_P2;PMS_P1;PMS_P2;Temp;Humidity;BMP_temperature;BMP_pressure;BME280_temperature;BME280_humidity;BME280_pressure;Samples;Min_cycle;Max_cycle;Signal;HPM_P1;HPM_P2
2022/01/08 00:01:09;;;;;;;6.63;6.03;;;;;;;;;;10418036;28;20219;-64
2022/01/08 00:06:12;;;;;;;6.75;6.15;;;;;;;;;;10421432;28;20226;-63
2022/01/08 00:11:17;;;;;;;7.22;6.57;;;;;;;;;;10418906;28;20297;-65
2022/01/08 00:16:19;;;;;;;6.60;6.07;;;;;;;;;;10416113;28;20234;-63
2022/01/08 00:21:20;;;;;;;7.18;5.93;;;;;;;;;;10420106;28;20199;-63
2022/01/08 00:26:21;;;;;;;5.32;5.00;;;;;;;;;;10417148;28;20539;-63
2022/01/08 00:31:22;;;;;;;5.57;5.10;;;;;;;;;;10417029;28;20231;-63
2022/01/08 00:36:23;;;;;;;4.78;4.50;;;;;;;;;;10417431;28;20195;-63
2022/01/08 00:41:25;;;;;;;5.68;5.20;;;;;;;;;;10414346;28;20203;-64
2022/01/08 00:46:26;;;;;;;5.55;5.22;;;;;;;;;;10417351;28;20285;-63
2022/01/08 00:51:27;;;;;;;4.47;4.18;;;;;;;;;;10420690;28;20288;-63
2022/01/08 00:56:28;;;;;;;4.75;4.35;;;;;;;;;;10417834;28;20701;-63
2022/01/08 01:01:29;;;;;;;3.83;3.60;;;;;;;;;;10414825;28;20206;-63
2022/01/08 01:06:30;;;;;;;4.95;4.55;;;;;;;;;;10417258;28;20195;-63
2022/01/08 01:11:31;;;;;;;4.85;4.43;;;;;;;;;;10416474;28;20647;-63
2022/01/08 01:16:33;;;;;;;3.97;3.67;;;;;;;;;;10411985;28;20282;-63
2022/01/08 01:21:34;;;;;;;3.90;3.70;;;;;;;;;;10414163;28;20270;-64
2022/01/08 01:26:36;;;;;;;3.42;3.33;;;;;;;;;;10411214;28;20711;-63
2022/01/08 01:43:05;;;;;;;3.47;3.38;;;;;;;;;;10418397;28;20194;-63
2022/01/08 01:47:40;;;;;;;3.92;3.72;;;;;;;;;;10404255;28;20218;-63
2022/01/08 01:52:41;;;;;;;4.15;3.85;;;;;;;;;;10415416;28;20219;-63
2022/01/08 01:57:42;;;;;;;3.75;3.55;;;;;;;;;;10416380;28;20696;-62
2022/01/08 02:02:43;;;;;;;8.07;4.13;;;;;;;;;;10415382;28;20268;-62
2022/01/08 02:07:44;;;;;;;4.10;3.80;;;;;;;;;;10414549;28;20253;-62
2022/01/08 02:12:45;;;;;;;4.00;3.80;;;;;;;;;;10415928;28;20215;-62
2022/01/08 02:17:47;;;;;;;5.65;4.10;;;;;;;;;;10413889;28;20186;-62
2022/01/08 02:22:48;;;;;;;4.93;4.28;;;;;;;;;;10407242;28;20195;-62
2022/01/08 02:27:49;;;;;;;4.82;4.50;;;;;;;;;;10416591;28;20216;-62
2022/01/08 02:32:50;;;;;;;5.05;4.65;;;;;;;;;;10415129;28;20233;-62
2022/01/08 02:37:52;;;;;;;5.88;4.57;;;;;;;;;;10414765;28;20195;-63
2022/01/08 02:43:00;;;;;;;5.13;4.47;;;;;;;;;;10415372;28;20266;-62
2022/01/08 02:48:01;;;;;;;5.32;4.85;;;;;;;;;;10413615;28;20268;-63
2022/01/08 02:53:02;;;;;;;5.53;5.00;;;;;;;;;;10413516;28;20709;-63
2022/01/08 02:58:04;;;;;;;4.50;4.20;;;;;;;;;;10412226;28;20834;-63
2022/01/08 03:03:05;;;;;;;4.82;4.35;;;;;;;;;;10412654;28;20235;-63
2022/01/08 03:08:06;;;;;;;5.25;4.85;;;;;;;;;;10413643;28;20195;-63
2022/01/08 03:13:07;;;;;;;5.45;5.05;;;;;;;;;;10409541;28;20207;-63
2022/01/08 03:18:08;;;;;;;5.57;5.00;;;;;;;;;;10414616;28;20184;-63
2022/01/08 03:23:14;;;;;;;5.63;5.18;;;;;;;;;;10392756;28;20196;-63
2022/01/08 03:28:15;;;;;;;5.38;4.78;;;;;;;;;;10412572;28;20192;-63
2022/01/08 03:33:16;;;;;;;5.57;5.18;;;;;;;;;;10418903;28;20877;-63
2022/01/08 03:38:17;;;;;;;5.13;4.72;;;;;;;;;;10418333;28;20227;-63
2022/01/08 03:43:18;;;;;;;4.47;4.18;;;;;;;;;;10424729;28;20966;-63
2022/01/08 03:48:29;;;;;;;4.80;4.40;;;;;;;;;;10417646;28;20775;-63
2022/01/08 03:53:30;;;;;;;5.00;4.63;;;;;;;;;;10418862;28;20298;-63
2022/01/08 03:58:31;;;;;;;5.22;4.82;;;;;;;;;;10422934;28;20205;-63
2022/01/08 04:03:32;;;;;;;4.45;4.10;;;;;;;;;;10407412;28;20211;-63
2022/01/08 04:08:33;;;;;;;5.43;4.93;;;;;;;;;;10421625;28;20846;-64
2022/01/08 04:13:38;;;;;;;5.07;4.65;;;;;;;;;;10421331;28;20266;-63
2022/01/08 04:18:39;;;;;;;5.07;4.68;;;;;;;;;;10419328;28;20234;-63
2022/01/08 04:23:40;;;;;;;4.88;4.45;;;;;;;;;;10417785;28;20278;-63
2022/01/08 04:28:41;;;;;;;5.78;5.20;;;;;;;;;;10422572;28;20564;-64
2022/01/08 04:33:42;;;;;;;5.68;5.18;;;;;;;;;;10420996;28;20310;-63
2022/01/08 04:38:43;;;;;;;5.78;4.75;;;;;;;;;;10418739;28;20227;-63
2022/01/08 04:43:44;;;;;;;4.88;4.47;;;;;;;;;;10413891;28;20332;-63
2022/01/08 04:48:45;;;;;;;4.60;4.20;;;;;;;;;;10413748;28;20236;-63
2022/01/08 04:53:46;;;;;;;4.65;4.25;;;;;;;;;;10416822;28;20306;-63
2022/01/08 04:58:47;;;;;;;4.90;4.55;;;;;;;;;;10414022;28;20192;-63
2022/01/08 05:03:48;;;;;;;6.00;5.07;;;;;;;;;;10417638;28;20269;-63
2022/01/08 05:08:49;;;;;;;5.90;5.38;;;;;;;;;;10421830;28;20206;-63
2022/01/08 05:13:51;;;;;;;5.65;5.10;;;;;;;;;;10416596;28;20223;-63
2022/01/08 05:18:54;;;;;;;5.57;5.07;;;;;;;;;;10416669;28;20226;-63
2022/01/08 05:23:56;;;;;;;5.00;4.35;;;;;;;;;;10419711;28;20190;-63
2022/01/08 05:28:57;;;;;;;5.47;4.85;;;;;;;;;;10415496;28;20211;-63
2022/01/08 05:33:58;;;;;;;5.97;4.60;;;;;;;;;;10414253;28;20218;-63
2022/01/08 05:38:59;;;;;;;5.47;5.00;;;;;;;;;;10418887;28;20199;-63
2022/01/08 05:44:00;;;;;;;6.07;5.47;;;;;;;;;;10413883;28;20722;-63
2022/01/08 05:49:02;;;;;;;6.75;5.57;;;;;;;;;;10416667;28;20222;-64
2022/01/08 05:54:03;;;;;;;6.10;5.50;;;;;;;;;;10413931;28;20226;-63
2022/01/08 05:59:04;;;;;;;6.70;6.00;;;;;;;;;;10413970;28;20221;-63
2022/01/08 06:04:05;;;;;;;6.13;5.53;;;;;;;;;;10412559;28;20269;-63
2022/01/08 06:09:07;;;;;;;6.55;5.85;;;;;;;;;;10414524;28;20214;-63
2022/01/08 06:14:08;;;;;;;5.97;5.55;;;;;;;;;;10415733;28;20199;-61
2022/01/08 06:19:10;;;;;;;6.25;5.65;;;;;;;;;;10418256;28;20198;-62
2022/01/08 06:24:11;;;;;;;5.93;5.35;;;;;;;;;;10419766;28;20194;-63
2022/01/08 06:29:12;;;;;;;9.20;6.55;;;;;;;;;;10412739;28;20215;-63
2022/01/08 06:34:13;;;;;;;7.75;6.20;;;;;;;;;;10409669;28;20208;-63
2022/01/08 06:39:15;;;;;;;6.45;5.85;;;;;;;;;;10414194;28;20230;-63
2022/01/08 06:44:16;;;;;;;6.68;6.05;;;;;;;;;;10409122;28;20191;-63
2022/01/08 06:49:17;;;;;;;6.28;5.68;;;;;;;;;;10414182;28;20231;-63
2022/01/08 06:54:18;;;;;;;9.85;5.70;;;;;;;;;;10417530;28;20196;-63
2022/01/08 06:59:19;;;;;;;6.78;6.10;;;;;;;;;;10415908;28;20198;-62
2022/01/08 07:04:20;;;;;;;6.90;5.68;;;;;;;;;;10412076;28;20215;-62
2022/01/08 07:09:21;;;;;;;5.82;5.10;;;;;;;;;;10422669;28;20207;-63
2022/01/08 07:14:23;;;;;;;6.82;6.10;;;;;;;;;;10419743;28;20226;-63
2022/01/08 07:19:24;;;;;;;8.27;6.75;;;;;;;;;;10422962;28;20239;-63
2022/01/08 07:24:25;;;;;;;10.57;7.15;;;;;;;;;;10418834;28;20195;-63
2022/01/08 07:29:26;;;;;;;13.32;7.78;;;;;;;;;;10422828;28;20214;-64
2022/01/08 07:34:27;;;;;;;7.25;6.55;;;;;;;;;;10423041;28;20207;-63
2022/01/08 07:39:28;;;;;;;8.93;6.63;;;;;;;;;;10423163;28;20229;-63
2022/01/08 07:44:29;;;;;;;7.82;7.00;;;;;;;;;;10421210;28;20197;-63
2022/01/08 07:49:30;;;;;;;8.13;6.82;;;;;;;;;;10416484;28;20245;-63
2022/01/08 07:54:31;;;;;;;9.57;6.95;;;;;;;;;;10421725;28;20189;-63
2022/01/08 07:59:33;;;;;;;10.75;6.97;;;;;;;;;;10419455;28;20202;-63
2022/01/08 08:04:34;;;;;;;8.43;7.53;;;;;;;;;;10413997;28;21124;-63
2022/01/08 08:09:35;;;;;;;9.18;6.97;;;;;;;;;;10410774;28;20695;-62
2022/01/08 08:14:36;;;;;;;9.20;7.20;;;;;;;;;;10414354;28;20195;-62
2022/01/08 08:19:37;;;;;;;8.82;6.90;;;;;;;;;;10418759;28;20651;-63
2022/01/08 08:24:38;;;;;;;8.85;6.88;;;;;;;;;;10415325;28;20195;-62
2022/01/08 08:29:40;;;;;;;12.70;8.90;;;;;;;;;;10402423;28;20632;-63
2022/01/08 08:34:41;;;;;;;15.25;9.82;;;;;;;;;;10417490;28;20270;-62
2022/01/08 08:39:42;;;;;;;13.05;9.52;;;;;;;;;;10418333;28;20595;-62
2022/01/08 08:44:43;;;;;;;15.65;10.02;;;;;;;;;;10414932;28;20210;-63
2022/01/08 08:49:44;;;;;;;18.15;11.18;;;;;;;;;;10417659;28;20246;-63
2022/01/08 08:54:45;;;;;;;17.83;10.73;;;;;;;;;;10416224;28;20203;-63
2022/01/08 08:59:46;;;;;;;15.52;9.88;;;;;;;;;;10415823;28;20218;-63
2022/01/08 09:04:48;;;;;;;14.88;9.73;;;;;;;;;;10413467;28;20246;-63
2022/01/08 09:09:49;;;;;;;15.95;10.55;;;;;;;;;;10415207;28;20221;-63
2022/01/08 09:14:50;;;;;;;16.23;10.25;;;;;;;;;;10411125;28;20187;-63
2022/01/08 09:19:51;;;;;;;16.88;10.57;;;;;;;;;;10418262;28;20199;-64
2022/01/08 09:24:54;;;;;;;15.85;9.93;;;;;;;;;;10409441;28;20230;-64
2022/01/08 09:29:55;;;;;;;12.75;9.55;;;;;;;;;;10417966;28;20261;-63
2022/01/08 09:34:56;;;;;;;17.02;9.73;;;;;;;;;;10413864;28;20302;-63
2022/01/08 09:39:57;;;;;;;15.65;11.02;;;;;;;;;;10394618;28;20209;-64
2022/01/08 09:44:58;;;;;;;15.70;11.05;;;;;;;;;;10411692;28;20205;-64
2022/01/08 09:49:59;;;;;;;19.45;11.60;;;;;;;;;;10416348;28;20238;-64
2022/01/08 09:55:00;;;;;;;15.80;10.45;;;;;;;;;;10412297;28;20213;-64
2022/01/08 10:00:08;;;;;;;19.90;10.50;;;;;;;;;;10409027;28;20301;-64
2022/01/08 10:05:11;;;;;;;11.50;9.15;;;;;;;;;;10412322;28;20301;-64
2022/01/08 10:10:13;;;;;;;12.48;9.77;;;;;;;;;;10410376;28;20207;-65
2022/01/08 10:20:37;;;;;;;15.80;9.65;;;;;;;;;;10410695;28;20210;-64
2022/01/08 10:25:40;;;;;;;11.05;8.43;;;;;;;;;;10413095;28;20747;-64
2022/01/08 10:30:41;;;;;;;12.82;8.75;;;;;;;;;;10400783;28;20238;-64
2022/01/08 10:36:00;;;;;;;13.20;8.02;;;;;;;;;;10416335;28;20272;-65
2022/01/08 10:41:02;;;;;;;14.88;7.88;;;;;;;;;;10395887;28;20292;-65
2022/01/08 10:46:17;;;;;;;11.20;7.65;;;;;;;;;;10408225;28;20270;-65
2022/01/08 10:51:23;;;;;;;12.40;8.30;;;;;;;;;;10382274;28;20215;-65
2022/01/08 10:56:26;;;;;;;13.52;7.78;;;;;;;;;;10376896;28;20241;-64
2022/01/08 11:01:42;;;;;;;17.60;8.43;;;;;;;;;;10379835;28;20253;-64
2022/01/08 11:06:53;;;;;;;11.52;6.70;;;;;;;;;;10378945;28;20774;-64
2022/01/08 11:11:56;;;;;;;15.20;7.05;;;;;;;;;;10378067;28;20642;-64
2022/01/08 11:16:57;;;;;;;10.77;7.35;;;;;;;;;;10377111;28;20284;-65
2022/01/08 11:21:58;;;;;;;10.60;6.15;;;;;;;;;;10377972;28;20199;-64
2022/01/08 11:26:59;;;;;;;8.20;6.25;;;;;;;;;;10376692;28;20329;-63
2022/01/08 11:32:03;;;;;;;10.10;7.00;;;;;;;;;;10376180;28;20247;-64
2022/01/08 11:37:04;;;;;;;11.27;7.03;;;;;;;;;;10377086;28;20640;-64
2022/01/08 11:42:06;;;;;;;13.73;7.00;;;;;;;;;;10378305;28;21018;-63
2022/01/08 11:47:07;;;;;;;10.35;6.75;;;;;;;;;;10388171;28;20222;-66
2022/01/08 11:52:19;;;;;;;10.38;7.50;;;;;;;;;;10418172;28;20222;-64
2022/01/08 11:57:22;;;;;;;13.80;6.68;;;;;;;;;;10418392;28;20249;-65
2022/01/08 12:02:33;;;;;;;11.65;7.15;;;;;;;;;;10417858;28;20214;-64
2022/01/08 12:07:37;;;;;;;9.60;6.97;;;;;;;;;;10419950;28;20194;-64
2022/01/08 12:13:04;;;;;;;10.73;7.72;;;;;;;;;;10411817;28;20242;-64
2022/01/08 12:18:06;;;;;;;15.80;8.48;;;;;;;;;;10390079;28;20199;-64
2022/01/08 12:23:26;;;;;;;9.65;7.25;;;;;;;;;;10416955;28;20345;-64
2022/01/08 12:28:46;;;;;;;10.82;7.18;;;;;;;;;;10416616;28;20230;-64
2022/01/08 12:33:47;;;;;;;6.25;5.63;;;;;;;;;;10398453;28;20262;-64
2022/01/08 12:39:00;;;;;;;7.38;5.93;;;;;;;;;;10408200;28;20195;-65
2022/01/08 12:44:21;;;;;;;10.63;6.07;;;;;;;;;;10416386;28;20199;-64
2022/01/08 12:49:22;;;;;;;7.18;6.03;;;;;;;;;;10414809;28;21322;-64
2022/01/08 12:54:23;;;;;;;9.50;6.63;;;;;;;;;;10413411;28;20187;-64
2022/01/08 12:59:31;;;;;;;8.00;6.47;;;;;;;;;;10408366;28;20196;-64
2022/01/08 13:04:32;;;;;;;10.95;6.53;;;;;;;;;;10415378;28;20215;-64
2022/01/08 13:09:33;;;;;;;13.23;7.13;;;;;;;;;;10410341;28;20264;-64
2022/01/08 13:14:34;;;;;;;14.52;6.72;;;;;;;;;;10416465;28;20746;-63
2022/01/08 13:19:37;;;;;;;11.10;5.93;;;;;;;;;;10399691;28;20223;-64
2022/01/08 13:24:46;;;;;;;11.63;6.15;;;;;;;;;;10412116;28;20199;-64
2022/01/08 13:29:48;;;;;;;9.85;5.93;;;;;;;;;;10416671;28;20207;-65
2022/01/08 13:35:00;;;;;;;15.43;6.57;;;;;;;;;;10405158;28;20208;-64
2022/01/08 13:40:04;;;;;;;12.32;6.65;;;;;;;;;;10405272;28;20206;-63
2022/01/08 13:45:07;;;;;;;11.80;6.78;;;;;;;;;;10415661;28;20209;-64
2022/01/08 13:50:20;;;;;;;8.50;5.97;;;;;;;;;;10408411;28;20743;-64
2022/01/08 13:55:27;;;;;;;10.05;6.18;;;;;;;;;;10408199;28;20227;-64
2022/01/08 14:00:29;;;;;;;6.75;5.55;;;;;;;;;;10411820;28;20756;-64
2022/01/08 14:05:30;;;;;;;10.07;5.28;;;;;;;;;;10411179;28;20218;-64
2022/01/08 14:10:42;;;;;;;6.57;5.70;;;;;;;;;;10413820;28;20219;-63
2022/01/08 14:15:45;;;;;;;8.43;5.43;;;;;;;;;;10412780;28;20306;-63
2022/01/08 14:20:46;;;;;;;5.97;5.13;;;;;;;;;;10412890;28;20187;-64
2022/01/08 14:25:50;;;;;;;11.02;4.93;;;;;;;;;;10412320;28;20199;-65
2022/01/08 14:30:52;;;;;;;8.20;5.50;;;;;;;;;;10401554;28;20838;-64
2022/01/08 14:36:00;;;;;;;11.75;5.35;;;;;;;;;;10412279;28;20287;-64
2022/01/08 14:41:01;;;;;;;9.00;4.40;;;;;;;;;;10409759;28;20230;-64
2022/01/08 14:46:02;;;;;;;8.13;4.60;;;;;;;;;;10407287;28;20195;-65
2022/01/08 14:51:03;;;;;;;8.10;4.65;;;;;;;;;;10413984;28;20610;-64
2022/01/08 14:56:06;;;;;;;5.47;4.97;;;;;;;;;;10408943;28;21142;-64
2022/01/08 15:01:08;;;;;;;8.55;5.18;;;;;;;;;;10405759;28;20234;-64
2022/01/08 15:06:10;;;;;;;9.68;5.60;;;;;;;;;;10405204;28;20195;-64
2022/01/08 15:11:13;;;;;;;8.35;6.72;;;;;;;;;;10412479;28;20597;-64
2022/01/08 15:16:14;;;;;;;17.60;8.85;;;;;;;;;;10409813;28;20274;-65
2022/01/08 15:21:15;;;;;;;15.75;9.35;;;;;;;;;;10409409;28;20198;-64
2022/01/08 15:26:16;;;;;;;9.60;5.95;;;;;;;;;;10408573;28;20191;-64
2022/01/08 15:31:17;;;;;;;5.40;4.90;;;;;;;;;;10406557;28;20223;-65
2022/01/08 15:36:18;;;;;;;4.45;4.20;;;;;;;;;;10419732;28;20195;-64
2022/01/08 15:41:19;;;;;;;11.18;4.53;;;;;;;;;;10410267;28;20188;-64
2022/01/08 15:46:20;;;;;;;6.28;4.85;;;;;;;;;;10412883;28;20219;-65
2022/01/08 15:51:21;;;;;;;11.70;4.40;;;;;;;;;;10412592;28;20225;-64
2022/01/08 15:56:24;;;;;;;8.27;4.07;;;;;;;;;;10412229;28;20202;-65
2022/01/08 16:01:25;;;;;;;7.93;4.65;;;;;;;;;;10414616;28;20298;-64
2022/01/08 16:06:27;;;;;;;7.90;4.50;;;;;;;;;;10414429;28;20968;-64
2022/01/08 16:11:28;;;;;;;9.02;5.00;;;;;;;;;;10414669;28;20207;-64
2022/01/08 16:16:30;;;;;;;7.40;4.78;;;;;;;;;;10408209;28;20191;-64
2022/01/08 16:21:34;;;;;;;6.60;4.93;;;;;;;;;;10411694;28;20226;-64
2022/01/08 16:26:35;;;;;;;25.77;13.18;;;;;;;;;;10411225;28;20198;-64
2022/01/08 16:31:36;;;;;;;13.07;10.25;;;;;;;;;;10413261;28;21856;-64
2022/01/08 16:36:37;;;;;;;10.10;7.38;;;;;;;;;;10417281;28;20194;-64
2022/01/08 16:41:38;;;;;;;9.18;6.10;;;;;;;;;;10414040;28;20201;-64
2022/01/08 16:46:40;;;;;;;10.32;5.55;;;;;;;;;;10407361;28;20220;-65
2022/01/08 16:51:41;;;;;;;11.85;6.65;;;;;;;;;;10414081;28;20305;-64
2022/01/08 16:56:42;;;;;;;7.90;6.20;;;;;;;;;;10416114;28;20190;-64
2022/01/08 17:01:43;;;;;;;4.35;3.95;;;;;;;;;;10411271;28;20207;-63
2022/01/08 17:06:44;;;;;;;6.85;4.07;;;;;;;;;;10411110;28;20196;-63
2022/01/08 17:11:45;;;;;;;8.13;4.80;;;;;;;;;;10409602;28;20276;-64
2022/01/08 17:16:46;;;;;;;7.45;4.80;;;;;;;;;;10409619;28;20241;-63
2022/01/08 17:21:48;;;;;;;5.18;3.97;;;;;;;;;;10410335;28;20195;-63
2022/01/08 17:26:49;;;;;;;5.78;4.65;;;;;;;;;;10412593;28;20199;-63
2022/01/08 17:31:50;;;;;;;6.03;4.95;;;;;;;;;;10413225;28;20222;-63
2022/01/08 17:36:51;;;;;;;6.70;4.97;;;;;;;;;;10411785;28;20187;-63
2022/01/08 17:41:52;;;;;;;8.57;5.47;;;;;;;;;;10415456;28;20201;-63
2022/01/08 17:46:53;;;;;;;4.97;4.22;;;;;;;;;;10413113;28;20215;-63
2022/01/08 17:51:54;;;;;;;2.95;2.80;;;;;;;;;;10412913;28;20207;-63
2022/01/08 17:56:56;;;;;;;4.43;2.95;;;;;;;;;;10413557;28;20215;-63
2022/01/08 18:01:58;;;;;;;4.85;3.83;;;;;;;;;;10411408;28;20215;-64
2022/01/08 18:06:59;;;;;;;4.57;4.18;;;;;;;;;;10412471;28;20298;-63
2022/01/08 18:12:00;;;;;;;6.20;3.90;;;;;;;;;;10413985;28;20230;-63
2022/01/08 18:17:01;;;;;;;5.32;4.00;;;;;;;;;;10413162;28;20191;-63
2022/01/08 18:22:03;;;;;;;3.83;3.50;;;;;;;;;;10412362;28;20226;-63
2022/01/08 18:27:04;;;;;;;4.03;3.03;;;;;;;;;;10414488;28;20191;-63
2022/01/08 18:32:05;;;;;;;5.38;3.70;;;;;;;;;;10409417;28;20230;-63
2022/01/08 18:37:06;;;;;;;4.50;4.00;;;;;;;;;;10413600;28;20199;-64
2022/01/08 18:42:07;;;;;;;5.53;4.75;;;;;;;;;;10414313;28;20199;-63
2022/01/08 18:47:08;;;;;;;5.93;4.82;;;;;;;;;;10410636;28;20266;-63
2022/01/08 18:52:10;;;;;;;7.10;5.00;;;;;;;;;;10414818;28;20260;-63
2022/01/08 18:57:11;;;;;;;6.45;4.38;;;;;;;;;;10413119;28;21275;-63
2022/01/08 19:02:13;;;;;;;8.60;5.78;;;;;;;;;;10412593;28;20211;-63
2022/01/08 19:07:14;;;;;;;11.82;8.95;;;;;;;;;;10418212;28;20584;-63
2022/01/08 19:12:15;;;;;;;7.28;6.57;;;;;;;;;;10418332;28;20218;-63
2022/01/08 19:17:16;;;;;;;5.55;4.57;;;;;;;;;;10417553;28;20195;-64
2022/01/08 19:22:17;;;;;;;6.63;5.38;;;;;;;;;;10418970;28;20197;-63
2022/01/08 19:27:18;;;;;;;7.97;5.28;;;;;;;;;;10421988;28;20206;-63
2022/01/08 19:32:19;;;;;;;5.28;4.38;;;;;;;;;;10419104;28;20235;-62
2022/01/08 19:37:20;;;;;;;5.65;5.07;;;;;;;;;;10420984;28;20241;-63
2022/01/08 19:42:21;;;;;;;5.47;4.00;;;;;;;;;;10418517;28;20580;-65
2022/01/08 19:47:22;;;;;;;5.90;3.38;;;;;;;;;;10419641;28;20389;-63
2022/01/08 19:52:24;;;;;;;3.97;3.55;;;;;;;;;;10413280;28;20215;-63
2022/01/08 19:57:25;;;;;;;3.60;3.30;;;;;;;;;;10416462;28;20263;-63
2022/01/08 20:02:26;;;;;;;6.38;3.88;;;;;;;;;;10423420;28;20569;-63
2022/01/08 20:07:27;;;;;;;4.20;3.60;;;;;;;;;;10421208;28;20187;-63
2022/01/08 20:12:29;;;;;;;4.47;3.38;;;;;;;;;;10416932;28;20203;-64
2022/01/08 20:17:31;;;;;;;3.42;3.10;;;;;;;;;;10416258;28;20191;-63
2022/01/08 20:22:32;;;;;;;7.10;3.10;;;;;;;;;;10419606;28;20199;-63
2022/01/08 20:27:33;;;;;;;5.82;3.50;;;;;;;;;;10415668;28;20203;-63
2022/01/08 20:32:34;;;;;;;4.68;3.28;;;;;;;;;;10414064;28;20238;-63
2022/01/08 20:37:35;;;;;;;4.45;4.05;;;;;;;;;;10417151;28;20195;-63
2022/01/08 20:42:36;;;;;;;4.10;3.72;;;;;;;;;;10410777;28;20191;-63
2022/01/08 20:47:37;;;;;;;5.15;3.70;;;;;;;;;;10413858;28;20723;-64
2022/01/08 20:52:38;;;;;;;4.38;3.47;;;;;;;;;;10418915;28;20225;-63
2022/01/08 20:57:39;;;;;;;4.68;3.33;;;;;;;;;;10416472;28;20232;-63
2022/01/08 21:02:40;;;;;;;4.43;3.63;;;;;;;;;;10413680;28;20219;-61
2022/01/08 21:07:41;;;;;;;6.53;3.92;;;;;;;;;;10415416;28;20196;-63
2022/01/08 21:12:43;;;;;;;4.28;3.92;;;;;;;;;;10415700;28;20207;-63
2022/01/08 21:17:44;;;;;;;8.38;4.13;;;;;;;;;;10413825;28;20186;-63
2022/01/08 21:22:45;;;;;;;4.55;3.28;;;;;;;;;;10415038;28;20846;-63
2022/01/08 21:27:46;;;;;;;3.63;3.42;;;;;;;;;;10411359;28;20202;-63
2022/01/08 21:32:47;;;;;;;6.38;4.50;;;;;;;;;;10389421;28;20218;-62
2022/01/08 21:37:54;;;;;;;5.72;4.40;;;;;;;;;;10409098;28;20693;-63
2022/01/08 21:42:55;;;;;;;4.47;4.05;;;;;;;;;;10417690;28;20207;-63
2022/01/08 21:47:56;;;;;;;5.47;3.67;;;;;;;;;;10414888;28;20223;-63
2022/01/08 21:52:57;;;;;;;3.20;3.00;;;;;;;;;;10414003;28;20824;-63
2022/01/08 21:57:58;;;;;;;5.72;3.75;;;;;;;;;;10415893;28;20199;-64
2022/01/08 22:02:59;;;;;;;3.95;3.65;;;;;;;;;;10413607;28;20221;-63
2022/01/08 22:08:00;;;;;;;3.88;3.55;;;;;;;;;;10408279;28;20299;-62
2022/01/08 22:13:01;;;;;;;5.10;3.33;;;;;;;;;;10417237;28;20217;-63
2022/01/08 22:18:03;;;;;;;4.18;3.45;;;;;;;;;;10409701;28;20198;-64
2022/01/08 22:23:04;;;;;;;3.92;3.55;;;;;;;;;;10407895;28;20198;-62
2022/01/08 22:28:05;;;;;;;3.63;3.33;;;;;;;;;;10415884;28;20199;-63
2022/01/08 22:33:06;;;;;;;4.50;3.40;;;;;;;;;;10415013;28;20242;-63
2022/01/08 22:38:07;;;;;;;5.25;3.78;;;;;;;;;;10409311;28;20766;-63
2022/01/08 22:43:08;;;;;;;3.83;3.35;;;;;;;;;;10404943;28;20183;-63
2022/01/08 22:48:09;;;;;;;2.90;2.80;;;;;;;;;;10406643;28;20294;-63
2022/01/08 22:53:12;;;;;;;4.45;3.30;;;;;;;;;;10405565;28;20202;-63
2022/01/08 22:58:16;;;;;;;3.20;2.97;;;;;;;;;;10413128;28;20856;-62
2022/01/08 23:03:17;;;;;;;3.35;3.15;;;;;;;;;;10414057;28;20219;-63
2022/01/08 23:08:18;;;;;;;2.00;1.90;;;;;;;;;;10413944;28;20571;-63
2022/01/08 23:13:19;;;;;;;5.53;3.28;;;;;;;;;;10413259;28;20211;-63
2022/01/08 23:18:20;;;;;;;5.38;2.72;;;;;;;;;;10408079;28;20230;-63
2022/01/08 23:23:21;;;;;;;4.18;2.35;;;;;;;;;;10410810;28;20191;-63
2022/01/08 23:28:23;;;;;;;3.92;3.50;;;;;;;;;;10405558;28;20213;-63
2022/01/08 23:33:25;;;;;;;5.50;3.38;;;;;;;;;;10413585;28;20262;-63
2022/01/08 23:38:26;;;;;;;3.42;2.80;;;;;;;;;;10414292;28;21010;-62
2022/01/08 23:43:27;;;;;;;4.53;4.00;;;;;;;;;;10412216;28;20303;-64
2022/01/08 23:48:28;;;;;;;6.03;3.58;;;;;;;;;;10414962;28;20318;-63
2022/01/08 23:53:29;;;;;;;3.72;3.45;;;;;;;;;;10422621;28;20695;-64
2022/01/08 23:58:31;;;;;;;3.67;3.42;;;;;;;;;;10417728;28;20188;-63
